Time;durP1;ratioP1;P1;durP2;ratioP2;P2;SDS_P1;SDS_P2;PMS_P1;PMS_P2;Temp;Humidity;BMP_temperature;BMP_pressure;BME280_temperature;BME280_humidity;BME280_pressure;Samples;Min_cycle;Max_cycle;Signal;HPM_P1;HPM_P2
2023/12/10 00:03:36;;;;;;;0.00;0.00;;;;;;;2.90;85.96;99502.97;15666210;28;20306;-45
2023/12/10 00:11:11;;;;;;;0.77;0.77;;;;;;;2.89;85.69;99519.03;15664026;28;20132;-48
2023/12/10 00:18:45;;;;;;;1.67;0.95;;;;;;;2.98;85.44;99523.22;15658045;28;20045;-47
2023/12/10 00:26:19;;;;;;;1.85;1.55;;;;;;;3.07;85.42;99519.41;15658696;28;20450;-47
2023/12/10 00:33:53;;;;;;;0.10;0.10;;;;;;;2.90;86.35;99508.28;15640241;28;20183;-44
2023/12/10 00:41:27;;;;;;;0.93;0.90;;;;;;;2.88;86.32;99502.31;15664995;28;20164;-45
2023/12/10 00:49:02;;;;;;;0.20;0.20;;;;;;;3.11;86.19;99502.09;15670577;28;20621;-47
2023/12/10 00:56:37;;;;;;;0.47;0.47;;;;;;;3.02;87.04;99488.16;15675460;28;20570;-46
2023/12/10 01:04:11;;;;;;;0.13;0.13;;;;;;;2.89;87.32;99471.34;15673928;28;20438;-44
2023/12/10 01:11:46;;;;;;;0.00;0.00;;;;;;;3.09;86.37;99490.06;15674452;28;20037;-48
2023/12/10 01:19:20;;;;;;;0.10;0.10;;;;;;;3.13;86.46;99496.63;15658060;28;20114;-44
2023/12/10 01:26:54;;;;;;;0.73;0.73;;;;;;;3.02;86.71;99503.25;15673105;28;20049;-49
2023/12/10 01:34:27;;;;;;;0.10;0.10;;;;;;;3.22;86.29;99504.25;15671267;28;20490;-45
2023/12/10 01:42:02;;;;;;;0.03;0.03;;;;;;;2.92;86.71;99514.19;15673680;28;20057;-45
2023/12/10 01:49:36;;;;;;;0.05;0.05;;;;;;;2.86;87.25;99528.22;15669135;28;20049;-47
2023/12/10 01:57:12;;;;;;;;;;;;;;;2.71;87.07;99530.94;15668510;28;20114;-45
2023/12/10 02:04:46;;;;;;;2.10;1.38;;;;;;;2.91;86.62;99532.94;15651516;28;19920;-44
2023/12/10 02:12:20;;;;;;;1.67;0.57;;;;;;;2.88;85.93;99528.84;15684413;22;20056;-49
2023/12/10 02:19:54;;;;;;;0.38;0.38;;;;;;;2.93;85.97;99530.91;15614076;28;20041;-49
2023/12/10 02:27:28;;;;;;;;;;;;;;;3.00;85.43;99537.91;15553304;28;20496;-48
2023/12/10 02:35:02;;;;;;;0.28;0.28;;;;;;;2.85;86.02;99534.53;15548133;28;19929;-49
2023/12/10 02:42:37;;;;;;;0.52;0.52;;;;;;;2.83;85.92;99527.75;15572161;28;20046;-49
2023/12/10 02:50:10;;;;;;;0.05;0.05;;;;;;;2.95;85.53;99519.13;15566381;28;20042;-49
2023/12/10 02:57:47;;;;;;;0.20;0.20;;;;;;;3.14;85.01;99530.91;15562858;28;20041;-49
2023/12/10 03:05:20;;;;;;;0.38;0.25;;;;;;;2.91;85.62;99554.97;15571294;28;20034;-48
2023/12/10 03:13:00;;;;;;;2.13;0.50;;;;;;;2.77;86.30;99556.66;15555850;28;20050;-49
2023/12/10 03:20:33;;;;;;;2.05;0.70;;;;;;;2.63;86.27;99577.91;15551659;28;20046;-50
2023/12/10 03:28:08;;;;;;;;;;;;;;;2.71;85.80;99588.41;15550178;28;20499;-48
2023/12/10 03:35:41;;;;;;;0.10;0.10;;;;;;;2.72;85.85;99580.25;15562941;28;19922;-50
2023/12/10 03:43:16;;;;;;;0.45;0.45;;;;;;;2.50;86.52;99595.28;15562573;28;20484;-49
2023/12/10 03:50:52;;;;;;;0.03;0.03;;;;;;;2.71;86.57;99596.34;15543449;28;20046;-46
2023/12/10 03:58:29;;;;;;;0.25;0.25;;;;;;;2.83;85.40;99591.38;15544475;28;20092;-49
2023/12/10 04:06:03;;;;;;;0.00;0.00;;;;;;;2.87;85.82;99589.97;15557701;28;20128;-47
2023/12/10 04:13:40;;;;;;;0.75;0.75;;;;;;;3.15;84.18;99611.25;15557676;28;20033;-46
2023/12/10 04:21:15;;;;;;;0.47;0.40;;;;;;;2.71;85.61;99597.16;15576261;28;20518;-45
2023/12/10 04:28:52;;;;;;;0.00;0.00;;;;;;;3.24;85.23;99620.72;15562349;28;20582;-45
2023/12/10 04:36:26;;;;;;;0.00;0.00;;;;;;;3.07;85.76;99614.84;15543774;28;20046;-46
2023/12/10 04:44:05;;;;;;;0.00;0.00;;;;;;;3.10;84.92;99629.56;15545416;28;20468;-44
2023/12/10 04:51:42;;;;;;;0.43;0.43;;;;;;;3.05;85.82;99638.09;15555835;28;20293;-47
2023/12/10 04:59:18;;;;;;;0.00;0.00;;;;;;;3.20;84.99;99646.78;15545508;28;20072;-44
2023/12/10 05:06:57;;;;;;;1.38;0.45;;;;;;;3.30;85.19;99649.13;15547770;28;20602;-48
2023/12/10 05:14:32;;;;;;;1.38;1.27;;;;;;;3.64;84.62;99660.84;15543264;28;20046;-45
2023/12/10 05:22:06;;;;;;;0.10;0.10;;;;;;;3.54;84.36;99666.47;15546324;28;20050;-49
2023/12/10 05:29:43;;;;;;;0.00;0.00;;;;;;;3.77;83.87;99663.59;15569654;28;20053;-48
2023/12/10 05:37:19;;;;;;;1.65;1.55;;;;;;;3.92;83.37;99684.78;15560805;28;20497;-51
2023/12/10 05:44:58;;;;;;;0.25;0.25;;;;;;;4.02;83.02;99678.09;15572120;28;20037;-48
2023/12/10 05:52:32;;;;;;;0.10;0.10;;;;;;;4.19;82.45;99680.44;15547514;28;20107;-49
2023/12/10 06:00:07;;;;;;;;;;;;;;;4.36;81.72;99689.75;15556712;28;20092;-49
2023/12/10 06:07:41;;;;;;;0.05;0.05;;;;;;;4.34;81.13;99705.91;15567629;28;19925;-51
2023/12/10 06:15:16;;;;;;;0.00;0.00;;;;;;;4.25;82.82;99717.69;15561782;28;20060;-48
2023/12/10 06:22:49;;;;;;;0.05;0.05;;;;;;;3.90;84.05;99722.13;15550574;28;20073;-51
2023/12/10 06:30:26;;;;;;;0.20;0.20;;;;;;;3.95;83.79;99737.47;15553436;28;20049;-50
2023/12/10 06:37:59;;;;;;;0.00;0.00;;;;;;;3.76;83.99;99741.59;15566820;28;20467;-49
2023/12/10 06:45:34;;;;;;;;;;;;;;;3.80;84.34;99742.84;15564081;28;20069;-47
2023/12/10 06:53:09;;;;;;;1.55;0.45;;;;;;;4.16;81.79;99750.72;15536718;28;19921;-49
2023/12/10 07:00:44;;;;;;;0.20;0.20;;;;;;;4.22;81.65;99754.44;15552754;28;20049;-50
2023/12/10 07:08:17;;;;;;;0.25;0.25;;;;;;;3.81;84.40;99769.19;15570835;28;20535;-48
2023/12/10 07:15:53;;;;;;;0.00;0.00;;;;;;;4.13;83.56;99782.13;15549375;28;20033;-49
2023/12/10 07:23:27;;;;;;;0.10;0.10;;;;;;;4.00;84.67;99790.81;15552056;28;20050;-48
2023/12/10 07:31:02;;;;;;;0.52;0.28;;;;;;;4.39;84.02;99782.34;15559637;28;20042;-50
2023/12/10 07:38:35;;;;;;;0.10;0.10;;;;;;;4.28;84.87;99790.84;15546712;28;20529;-50
2023/12/10 07:46:12;;;;;;;0.00;0.00;;;;;;;4.45;85.69;99797.50;15559622;28;20068;-52
2023/12/10 07:53:46;;;;;;;0.15;0.13;;;;;;;4.56;86.38;99806.78;15574502;28;20049;-49
2023/12/10 08:01:21;;;;;;;0.00;0.00;;;;;;;4.86;86.10;99807.41;15551251;28;20046;-49
2023/12/10 08:08:55;;;;;;;0.20;0.20;;;;;;;5.05;86.19;99814.66;15541361;28;20054;-50
2023/12/10 08:16:30;;;;;;;0.00;0.00;;;;;;;5.34;85.93;99821.53;15551164;28;20571;-46
2023/12/10 08:24:04;;;;;;;0.00;0.00;;;;;;;5.72;86.34;99820.22;15532746;28;20100;-45
2023/12/10 08:31:42;;;;;;;0.65;0.65;;;;;;;5.81;86.55;99832.31;15535264;28;20042;-46
2023/12/10 08:39:16;;;;;;;0.22;0.22;;;;;;;6.11;86.08;99841.66;15571312;28;20504;-49
2023/12/10 08:46:52;;;;;;;0.00;0.00;;;;;;;6.50;85.85;99836.53;15565540;28;20038;-46
2023/12/10 08:54:26;;;;;;;0.00;0.00;;;;;;;6.83;84.73;99841.81;15535057;28;20041;-45
2023/12/10 09:02:12;;;;;;;0.00;0.00;;;;;;;6.89;84.46;99857.81;15556039;28;20042;-47
2023/12/10 09:09:46;;;;;;;0.35;0.35;;;;;;;7.03;83.93;99855.13;15541171;28;20041;-48
2023/12/10 09:17:22;;;;;;;0.00;0.00;;;;;;;6.94;83.93;99861.69;15559064;28;20057;-47
2023/12/10 09:24:56;;;;;;;0.10;0.10;;;;;;;7.01;83.29;99879.34;15563223;28;20061;-46
2023/12/10 09:32:31;;;;;;;0.55;0.55;;;;;;;6.86;83.77;99878.75;15558460;28;20125;-47
2023/12/10 09:40:05;;;;;;;0.00;0.00;;;;;;;7.02;84.59;99875.66;15565800;28;20054;-48
2023/12/10 09:47:41;;;;;;;0.08;0.08;;;;;;;7.31;84.11;99889.53;15568862;28;20052;-49
2023/12/10 09:55:15;;;;;;;0.00;0.00;;;;;;;7.05;84.70;99888.59;15572803;28;20121;-50
2023/12/10 10:03:00;;;;;;;0.00;0.00;;;;;;;7.19;83.85;99893.91;15570411;28;20290;-47
2023/12/10 10:10:35;;;;;;;0.20;0.20;;;;;;;7.21;84.64;99902.50;15571854;28;20053;-48
2023/12/10 10:18:11;;;;;;;0.52;0.25;;;;;;;7.15;84.42;99893.47;15571064;28;20103;-47
2023/12/10 10:25:45;;;;;;;0.00;0.00;;;;;;;7.15;84.67;99893.47;15537610;28;20053;-46
2023/12/10 10:33:21;;;;;;;0.00;0.00;;;;;;;7.31;84.36;99887.69;15562482;28;20046;-45
2023/12/10 10:40:56;;;;;;;0.05;0.05;;;;;;;7.10;84.86;99890.63;15563258;28;20048;-45
2023/12/10 10:48:35;;;;;;;0.00;0.00;;;;;;;7.23;84.29;99887.09;15566679;28;20096;-47
2023/12/10 10:56:11;;;;;;;0.00;0.00;;;;;;;7.22;84.04;99885.44;15563741;28;20505;-47
2023/12/10 11:03:47;;;;;;;0.10;0.10;;;;;;;7.14;84.21;99886.50;15557049;28;20056;-46
2023/12/10 11:11:20;;;;;;;0.00;0.00;;;;;;;7.05;84.73;99885.09;15546900;28;20065;-45
2023/12/10 11:18:58;;;;;;;1.75;1.65;;;;;;;7.11;84.42;99874.41;15571009;28;20050;-46
2023/12/10 11:26:31;;;;;;;0.57;0.45;;;;;;;7.31;83.74;99874.34;15568776;28;20523;-46
2023/12/10 11:34:07;;;;;;;0.00;0.00;;;;;;;7.21;84.18;99865.94;15579137;28;20048;-50
2023/12/10 11:41:41;;;;;;;0.00;0.00;;;;;;;7.24;83.86;99878.06;15551214;28;20092;-48
2023/12/10 11:49:17;;;;;;;0.00;0.00;;;;;;;6.86;84.09;99814.75;15568415;28;20493;-50
2023/12/10 11:56:51;;;;;;;0.00;0.00;;;;;;;7.28;84.38;99860.63;15562316;28;20064;-50
2023/12/10 12:04:28;;;;;;;0.70;0.70;;;;;;;7.41;84.55;99874.75;15570214;28;20074;-51
2023/12/10 12:12:02;;;;;;;2.13;1.65;;;;;;;7.24;84.50;99860.22;15555588;28;20153;-51
2023/12/10 12:19:36;;;;;;;;;;;;;;;7.22;84.80;99843.56;15582533;28;20053;-50
2023/12/10 12:27:10;;;;;;;0.50;0.25;;;;;;;7.09;85.98;99841.78;15561403;28;20364;-51
2023/12/10 12:34:45;;;;;;;0.40;0.40;;;;;;;7.00;86.85;99840.38;15551657;28;20385;-50
2023/12/10 12:42:18;;;;;;;0.00;0.00;;;;;;;7.13;85.99;99839.50;15571153;28;20064;-49
2023/12/10 12:49:53;;;;;;;0.20;0.20;;;;;;;7.09;85.59;99833.78;15574624;28;20084;-48
2023/12/10 12:57:27;;;;;;;0.00;0.00;;;;;;;7.31;85.32;99839.63;15552971;28;20161;-49
2023/12/10 13:05:01;;;;;;;;;;;;;;;7.13;85.46;99835.00;15568445;28;20133;-47
2023/12/10 13:12:38;;;;;;;2.10;0.70;;;;;;;7.35;84.71;99845.38;15562482;28;19925;-49
2023/12/10 13:20:13;;;;;;;;;;;;;;;7.23;85.25;99845.22;15571286;28;20518;-50
2023/12/10 13:27:47;;;;;;;0.00;0.00;;;;;;;7.09;85.62;99849.78;15578190;28;19932;-48
2023/12/10 13:35:25;;;;;;;1.45;0.77;;;;;;;7.07;86.10;99851.00;15559896;28;20046;-47
2023/12/10 13:42:58;;;;;;;0.00;0.00;;;;;;;7.08;86.43;99863.31;15565860;28;20128;-52
2023/12/10 13:50:34;;;;;;;0.00;0.00;;;;;;;6.96;86.94;99867.66;15572444;28;20438;-51
2023/12/10 13:58:07;;;;;;;0.00;0.00;;;;;;;7.05;86.97;99880.56;15584296;28;20120;-48
2023/12/10 14:05:42;;;;;;;0.00;0.00;;;;;;;6.95;88.10;99882.84;15555028;28;20389;-47
2023/12/10 14:13:16;;;;;;;0.20;0.10;;;;;;;6.82;88.58;99886.34;15589118;22;20424;-44
2023/12/10 14:20:50;;;;;;;;;;;;;;;6.98;88.28;99881.59;15771757;28;20052;-44
2023/12/10 14:28:24;;;;;;;0.00;0.00;;;;;;;7.04;87.90;99891.44;15808147;28;19974;-43
2023/12/10 14:35:59;;;;;;;;;;;;;;;6.95;88.44;99896.19;15805793;28;20467;-42
2023/12/10 14:43:33;;;;;;;0.00;0.00;;;;;;;7.05;88.40;99901.09;15805333;28;20358;-43
2023/12/10 14:51:09;;;;;;;0.00;0.00;;;;;;;6.96;88.89;99907.69;15806593;28;20462;-45
2023/12/10 14:58:43;;;;;;;0.00;0.00;;;;;;;6.90;88.45;99909.31;15804158;28;20069;-44
2023/12/10 15:06:17;;;;;;;;;;;;;;;6.89;89.22;99923.69;15804045;28;20044;-45
2023/12/10 15:13:52;;;;;;;0.00;0.00;;;;;;;6.75;89.73;99922.03;15802567;28;19963;-46
2023/12/10 15:21:27;;;;;;;0.00;0.00;;;;;;;6.95;88.38;99928.22;15801206;28;20056;-44
2023/12/10 15:29:01;;;;;;;0.00;0.00;;;;;;;6.95;88.42;99933.53;15801910;28;20063;-46
2023/12/10 15:36:35;;;;;;;;;;;;;;;7.01;87.30;99942.56;15782649;28;20046;-43
2023/12/10 15:44:10;;;;;;;0.00;0.00;;;;;;;6.98;87.53;99946.44;15799926;28;19927;-46
2023/12/10 15:51:45;;;;;;;0.00;0.00;;;;;;;7.21;86.48;99951.34;15800145;28;20054;-45
2023/12/10 15:59:20;;;;;;;0.00;0.00;;;;;;;7.06;86.03;99948.91;15781154;28;20059;-46
2023/12/10 16:06:55;;;;;;;0.13;0.13;;;;;;;7.01;86.39;99954.06;15777396;28;20443;-46
2023/12/10 16:14:32;;;;;;;0.00;0.00;;;;;;;7.02;85.80;99946.88;15781162;28;20040;-44
2023/12/10 16:22:06;;;;;;;0.00;0.00;;;;;;;7.05;85.42;99949.94;15798618;28;20517;-44
2023/12/10 16:29:43;;;;;;;0.00;0.00;;;;;;;7.02;84.82;99963.69;15799111;28;20071;-45
2023/12/10 16:37:18;;;;;;;0.20;0.20;;;;;;;7.07;85.18;99971.91;15781172;28;20102;-44
2023/12/10 16:44:52;;;;;;;0.35;0.25;;;;;;;6.98;84.96;99986.47;15794261;28;20562;-46
2023/12/10 16:52:29;;;;;;;0.00;0.00;;;;;;;7.03;85.10;99983.19;15736529;28;20105;-43
2023/12/10 17:00:04;;;;;;;0.10;0.10;;;;;;;7.06;85.25;99993.47;15736982;28;20076;-44
2023/12/10 17:07:39;;;;;;;0.00;0.00;;;;;;;6.97;86.26;100000.03;15762228;28;20094;-45
2023/12/10 17:15:13;;;;;;;1.58;1.05;;;;;;;7.29;84.57;99990.38;15797320;28;20466;-45
2023/12/10 17:22:49;;;;;;;0.00;0.00;;;;;;;7.03;85.53;99992.00;15783508;28;20036;-44
2023/12/10 17:30:25;;;;;;;0.00;0.00;;;;;;;6.90;85.55;99997.34;15809223;28;20044;-46
2023/12/10 17:37:59;;;;;;;0.00;0.00;;;;;;;6.90;85.56;99984.00;15809172;28;20072;-44
2023/12/10 17:45:33;;;;;;;0.00;0.00;;;;;;;7.17;84.50;99982.16;15796554;28;20420;-46
2023/12/10 17:53:10;;;;;;;0.00;0.00;;;;;;;7.02;84.47;99970.88;15744115;28;20041;-45
2023/12/10 18:00:45;;;;;;;0.00;0.00;;;;;;;6.65;84.36;99963.28;15744364;28;20040;-49
2023/12/10 18:08:20;;;;;;;0.15;0.10;;;;;;;6.72;84.25;99971.28;15768978;28;20406;-44
2023/12/10 18:15:53;;;;;;;0.63;0.13;;;;;;;6.60;83.71;99962.25;15805916;28;20414;-44
2023/12/10 18:23:28;;;;;;;0.28;0.15;;;;;;;6.72;82.62;99947.28;15805222;28;20044;-44
2023/12/10 18:31:02;;;;;;;0.10;0.10;;;;;;;6.65;82.40;99944.59;15807342;28;20052;-47
2023/12/10 18:38:36;;;;;;;;;;;;;;;6.80;81.29;99938.25;15789714;28;20032;-44
2023/12/10 18:46:10;;;;;;;1.05;0.98;;;;;;;6.90;81.13;99931.50;15789989;28;19937;-45
2023/12/10 18:53:46;;;;;;;0.00;0.00;;;;;;;6.82;81.28;99917.53;15741535;28;20477;-45
2023/12/10 19:01:22;;;;;;;0.00;0.00;;;;;;;7.13;78.52;99898.19;15742351;28;20056;-45
2023/12/10 19:08:57;;;;;;;0.00;0.00;;;;;;;7.34;77.74;99900.63;15788823;28;20101;-45
2023/12/10 19:16:35;;;;;;;0.00;0.00;;;;;;;7.27;77.63;99901.66;15801455;28;20467;-47
2023/12/10 19:24:09;;;;;;;0.00;0.00;;;;;;;7.45;76.89;99892.97;15801660;28;20525;-46
2023/12/10 19:31:44;;;;;;;0.20;0.10;;;;;;;7.41;76.53;99881.91;15783866;28;20498;-46
2023/12/10 19:39:20;;;;;;;1.17;0.35;;;;;;;7.23;76.18;99879.94;15798509;28;20131;-43
2023/12/10 19:46:53;;;;;;;0.00;0.00;;;;;;;7.35;75.77;99862.22;15773105;28;20050;-44
2023/12/10 19:54:29;;;;;;;0.00;0.00;;;;;;;7.21;76.25;99863.28;15733973;28;20044;-45
2023/12/10 20:02:02;;;;;;;0.05;0.05;;;;;;;7.19;76.25;99846.69;15733299;28;20066;-47
2023/12/10 20:09:37;;;;;;;;;;;;;;;7.12;76.20;99846.69;15787661;28;20395;-48
2023/12/10 20:17:10;;;;;;;0.10;0.10;;;;;;;6.84;76.58;99817.59;15737622;23;19928;-49
2023/12/10 20:24:46;;;;;;;0.00;0.00;;;;;;;6.93;75.89;99804.03;15652759;28;20099;-50
2023/12/10 20:32:20;;;;;;;0.00;0.00;;;;;;;6.86;76.17;99796.88;15662935;28;20053;-46
2023/12/10 20:39:56;;;;;;;0.00;0.00;;;;;;;7.12;75.51;99785.31;15671076;28;20450;-50
2023/12/10 20:47:30;;;;;;;0.17;0.17;;;;;;;7.11;75.46;99778.34;15665541;28;20064;-49
2023/12/10 20:55:06;;;;;;;;;;;;;;;7.04;75.41;99766.88;15656113;28;20384;-50
2023/12/10 21:02:39;;;;;;;0.10;0.10;;;;;;;6.96;76.12;99751.09;15666190;28;19924;-48
2023/12/10 21:10:14;;;;;;;0.30;0.30;;;;;;;6.94;75.97;99742.47;15680091;28;20432;-53
2023/12/10 21:17:48;;;;;;;0.00;0.00;;;;;;;7.06;75.43;99715.97;15667112;28;20667;-50
2023/12/10 21:25:24;;;;;;;7.03;1.80;;;;;;;6.97;75.76;99726.06;15682269;28;20060;-51
2023/12/10 21:32:57;;;;;;;0.00;0.00;;;;;;;6.97;74.97;99683.38;15684027;28;20056;-52
2023/12/10 21:40:33;;;;;;;0.15;0.15;;;;;;;6.95;75.64;99693.44;15665851;28;20053;-49
2023/12/10 21:48:07;;;;;;;0.00;0.00;;;;;;;6.39;76.51;99686.88;15646150;28;20056;-48
2023/12/10 21:55:43;;;;;;;0.47;0.30;;;;;;;6.54;76.32;99664.47;15664300;28;20391;-48
2023/12/10 22:03:17;;;;;;;2.40;0.63;;;;;;;6.64;75.65;99647.00;15660760;28;20041;-46
2023/12/10 22:10:56;;;;;;;0.00;0.00;;;;;;;6.27;76.97;99645.06;15635341;28;20045;-50
2023/12/10 22:18:30;;;;;;;0.20;0.20;;;;;;;6.50;76.41;99634.75;15661431;28;20055;-49
2023/12/10 22:26:04;;;;;;;0.17;0.17;;;;;;;6.44;77.28;99634.78;15678398;28;20048;-50
2023/12/10 22:33:38;;;;;;;0.43;0.43;;;;;;;6.29;79.11;99627.00;15677292;28;20098;-48
2023/12/10 22:41:13;;;;;;;0.00;0.00;;;;;;;6.28;78.95;99620.06;15659853;28;20041;-50
2023/12/10 22:48:47;;;;;;;0.00;0.00;;;;;;;6.13;80.31;99618.44;15671917;28;20120;-47
2023/12/10 22:56:22;;;;;;;1.20;1.13;;;;;;;6.08;80.99;99615.59;15676177;28;20126;-50
2023/12/10 23:03:55;;;;;;;0.00;0.00;;;;;;;5.91;83.19;99613.53;15666170;28;20044;-47
2023/12/10 23:11:30;;;;;;;0.00;0.00;;;;;;;6.04;83.68;99582.41;15648823;28;20041;-48
2023/12/10 23:19:04;;;;;;;0.08;0.08;;;;;;;5.98;84.98;99575.25;15677937;28;20138;-49
2023/12/10 23:26:38;;;;;;;;;;;;;;;5.96;84.72;99560.50;15678742;28;20041;-48
2023/12/10 23:34:12;;;;;;;0.30;0.30;;;;;;;6.00;83.96;99533.25;15659546;28;19966;-47
2023/12/10 23:41:46;;;;;;;0.00;0.00;;;;;;;6.38;83.18;99517.28;15674469;28;20398;-47
2023/12/10 23:49:20;;;;;;;0.10;0.10;;;;;;;6.17;84.38;99498.97;15651334;28;20223;-47
2023/12/10 23:56:55;;;;;;;;;;;;;;;5.98;85.97;99484.72;15674054;28;20041;-49
